Pagrindinis puslapis
METAR-TAF:

METAR-TAF

Oro uostai :

Stokholmas-Arlanda, Švedija

platuma: 59-39N, ilguma: 017-57E, Aukštis: 38 m

Dabartinis oras

Ataskaita buvo paskelbta 35 minutes, ne 19:20 UTC
Vėjas 4 kt iš Pietryčių
Temperatūra 12°C
Drėgmė 88%
Slėgis 1001 hPa
Matomumas 10 km arba daugiau
nėra debesų žemiau 1500 m ir nėra kamuolinių lietaus debesų

METAR: ESSA 231920Z 14004KT CAVOK 12/10 Q1001 NOSIG

Laikas: 21:55 (19:55 UTC)

Prognozė

Ataskaita buvo paskelbta 2 valandos ir 25 minutes, ne 17:30 UTC
Prognozė galioja nuo 23 metu 18 UTC su 24 metu 18 UTC
Vėjas 6 kt iš Pietų
Matomumas 10 km arba daugiau
nėra debesų žemiau 1500 m ir nėra kamuolinių lietaus debesų
Tikimybė 40%
nuo 24 metu 03 UTC su 24 metu 07 UTC
Matomumas: 2000 m
Su prošvaistėmis ne aukštis 400 ft
rūkana

TAF: ESSA 231730Z 2318/2418 17006KT CAVOK PROB40 2403/2407 2000 BR BKN004

Orai ataskaitas ir orų prognozės (METAR, TAF).

turimą stotys yra geltonos ir raudonos taškus žemėlapyje.

Perkelti pele per norėdami pamatyti stoties vardą.

Tada spustelėkite, norėdami matyti oro stebėjimo ir prognozės.

Norėdami pakeisti žemėlapį: spustelėkite ant žalios mygtukų su juodo kryžiaus žemyn,; žalią mygtuką su brūkšneliu, jei norite nutolinti; arba žalių rodyklių gretimoms žemėlapius.


METAR-TAF: